sensor_id;sensor_type;location;lat;lon;timestamp;temperature;humidity
17728;DHT22;8984;49.268;12.302;2023-12-20T00:01:12;5.20;99.90
17728;DHT22;8984;49.268;12.302;2023-12-20T00:03:38;5.20;99.90
17728;DHT22;8984;49.268;12.302;2023-12-20T00:06:05;5.10;99.90
17728;DHT22;8984;49.268;12.302;2023-12-20T00:08:32;5.20;99.90
17728;DHT22;8984;49.268;12.302;2023-12-20T00:11:00;5.20;99.90
17728;DHT22;8984;49.268;12.302;2023-12-20T00:13:27;5.10;99.90
17728;DHT22;8984;49.268;12.302;2023-12-20T00:15:53;5.10;99.90
17728;DHT22;8984;49.268;12.302;2023-12-20T00:18:20;5.10;99.90
17728;DHT22;8984;49.268;12.302;2023-12-20T00:20:47;5.10;99.90
17728;DHT22;8984;49.268;12.302;2023-12-20T00:23:13;5.10;99.90
17728;DHT22;8984;49.268;12.302;2023-12-20T00:25:40;5.10;99.90
17728;DHT22;8984;49.268;12.302;2023-12-20T00:28:08;5.10;99.90
17728;DHT22;8984;49.268;12.302;2023-12-20T00:30:35;5.10;99.90
17728;DHT22;8984;49.268;12.302;2023-12-20T00:33:02;5.10;99.90
17728;DHT22;8984;49.268;12.302;2023-12-20T00:35:28;5.20;99.90
17728;DHT22;8984;49.268;12.302;2023-12-20T00:37:55;5.20;99.90
17728;DHT22;8984;49.268;12.302;2023-12-20T00:40:22;5.20;99.90
17728;DHT22;8984;49.268;12.302;2023-12-20T00:42:49;5.20;99.90
17728;DHT22;8984;49.268;12.302;2023-12-20T00:45:17;5.30;99.90
17728;DHT22;8984;49.268;12.302;2023-12-20T00:47:44;5.30;99.90
17728;DHT22;8984;49.268;12.302;2023-12-20T00:50:10;5.30;99.90
17728;DHT22;8984;49.268;12.302;2023-12-20T00:52:37;5.30;99.90
17728;DHT22;8984;49.268;12.302;2023-12-20T00:55:05;5.40;99.90
17728;DHT22;8984;49.268;12.302;2023-12-20T00:57:31;5.40;99.90
17728;DHT22;8984;49.268;12.302;2023-12-20T00:59:58;5.40;99.90
17728;DHT22;8984;49.268;12.302;2023-12-20T01:02:26;5.30;99.90
17728;DHT22;8984;49.268;12.302;2023-12-20T01:04:53;5.30;99.90
17728;DHT22;8984;49.268;12.302;2023-12-20T01:07:20;5.40;99.90
17728;DHT22;8984;49.268;12.302;2023-12-20T01:09:47;5.40;99.90
17728;DHT22;8984;49.268;12.302;2023-12-20T01:12:13;5.50;99.90
17728;DHT22;8984;49.268;12.302;2023-12-20T01:14:40;5.50;99.90
17728;DHT22;8984;49.268;12.302;2023-12-20T01:17:07;5.40;99.90
17728;DHT22;8984;49.268;12.302;2023-12-20T01:19:36;5.40;99.90
17728;DHT22;8984;49.268;12.302;2023-12-20T01:22:03;5.50;99.90
17728;DHT22;8984;49.268;12.302;2023-12-20T01:24:30;5.40;99.90
17728;DHT22;8984;49.268;12.302;2023-12-20T01:26:57;5.10;99.90
17728;DHT22;8984;49.268;12.302;2023-12-20T01:29:24;5.30;99.90
17728;DHT22;8984;49.268;12.302;2023-12-20T01:31:51;5.30;99.90
17728;DHT22;8984;49.268;12.302;2023-12-20T01:34:17;5.20;99.90
17728;DHT22;8984;49.268;12.302;2023-12-20T01:36:46;5.30;99.90
17728;DHT22;8984;49.268;12.302;2023-12-20T01:39:12;5.40;99.90
17728;DHT22;8984;49.268;12.302;2023-12-20T01:41:39;5.50;99.90
17728;DHT22;8984;49.268;12.302;2023-12-20T01:44:06;5.50;99.90
17728;DHT22;8984;49.268;12.302;2023-12-20T01:46:33;5.50;99.90
17728;DHT22;8984;49.268;12.302;2023-12-20T01:49:00;5.50;99.90
17728;DHT22;8984;49.268;12.302;2023-12-20T01:51:27;5.40;99.90
17728;DHT22;8984;49.268;12.302;2023-12-20T01:53:57;5.50;99.90
17728;DHT22;8984;49.268;12.302;2023-12-20T01:56:24;5.60;99.90
17728;DHT22;8984;49.268;12.302;2023-12-20T01:58:51;5.50;99.90
17728;DHT22;8984;49.268;12.302;2023-12-20T02:01:18;5.50;99.90
17728;DHT22;8984;49.268;12.302;2023-12-20T02:03:45;5.50;99.90
17728;DHT22;8984;49.268;12.302;2023-12-20T02:06:12;5.60;99.90
17728;DHT22;8984;49.268;12.302;2023-12-20T02:08:39;5.60;99.90
17728;DHT22;8984;49.268;12.302;2023-12-20T02:11:07;5.70;99.90
17728;DHT22;8984;49.268;12.302;2023-12-20T02:13:34;5.60;99.90
17728;DHT22;8984;49.268;12.302;2023-12-20T02:16:01;5.60;99.90
17728;DHT22;8984;49.268;12.302;2023-12-20T02:18:28;5.60;99.90
17728;DHT22;8984;49.268;12.302;2023-12-20T02:20:55;5.60;99.90
17728;DHT22;8984;49.268;12.302;2023-12-20T02:23:23;5.50;99.90
17728;DHT22;8984;49.268;12.302;2023-12-20T02:25:50;5.60;99.90
17728;DHT22;8984;49.268;12.302;2023-12-20T02:28:16;5.60;99.90
17728;DHT22;8984;49.268;12.302;2023-12-20T02:30:43;5.50;99.90
17728;DHT22;8984;49.268;12.302;2023-12-20T02:33:12;5.50;99.90
17728;DHT22;8984;49.268;12.302;2023-12-20T02:35:40;5.60;99.90
17728;DHT22;8984;49.268;12.302;2023-12-20T02:38:07;5.50;99.90
17728;DHT22;8984;49.268;12.302;2023-12-20T02:40:35;5.50;99.90
17728;DHT22;8984;49.268;12.302;2023-12-20T02:43:01;5.60;99.90
17728;DHT22;8984;49.268;12.302;2023-12-20T02:45:28;5.60;99.90
17728;DHT22;8984;49.268;12.302;2023-12-20T02:47:55;5.60;99.90
17728;DHT22;8984;49.268;12.302;2023-12-20T02:50:22;5.50;99.90
17728;DHT22;8984;49.268;12.302;2023-12-20T02:52:49;5.50;99.90
17728;DHT22;8984;49.268;12.302;2023-12-20T02:55:16;5.60;99.90
17728;DHT22;8984;49.268;12.302;2023-12-20T02:57:44;5.60;99.90
17728;DHT22;8984;49.268;12.302;2023-12-20T03:00:11;5.70;99.90
17728;DHT22;8984;49.268;12.302;2023-12-20T03:02:38;5.70;99.90
17728;DHT22;8984;49.268;12.302;2023-12-20T03:05:06;5.80;99.90
17728;DHT22;8984;49.268;12.302;2023-12-20T03:07:32;5.80;99.90
17728;DHT22;8984;49.268;12.302;2023-12-20T03:09:59;5.70;99.90
17728;DHT22;8984;49.268;12.302;2023-12-20T03:12:26;5.70;99.90
17728;DHT22;8984;49.268;12.302;2023-12-20T03:14:54;5.80;99.90
17728;DHT22;8984;49.268;12.302;2023-12-20T03:17:23;5.80;99.90
17728;DHT22;8984;49.268;12.302;2023-12-20T03:20:06;5.90;99.90
17728;DHT22;8984;49.268;12.302;2023-12-20T03:22:38;5.80;99.90
17728;DHT22;8984;49.268;12.302;2023-12-20T03:25:23;5.70;99.90
17728;DHT22;8984;49.268;12.302;2023-12-20T03:27:59;5.80;99.90
17728;DHT22;8984;49.268;12.302;2023-12-20T03:30:32;5.80;99.90
17728;DHT22;8984;49.268;12.302;2023-12-20T03:33:03;5.90;99.90
17728;DHT22;8984;49.268;12.302;2023-12-20T03:35:32;5.80;99.90
17728;DHT22;8984;49.268;12.302;2023-12-20T03:38:11;5.90;99.90
17728;DHT22;8984;49.268;12.302;2023-12-20T03:40:54;5.90;99.90
17728;DHT22;8984;49.268;12.302;2023-12-20T03:43:29;5.90;99.90
17728;DHT22;8984;49.268;12.302;2023-12-20T03:46:10;6.00;99.90
17728;DHT22;8984;49.268;12.302;2023-12-20T03:48:45;6.00;99.90
17728;DHT22;8984;49.268;12.302;2023-12-20T03:51:43;6.00;99.90
17728;DHT22;8984;49.268;12.302;2023-12-20T03:54:22;6.00;99.90
17728;DHT22;8984;49.268;12.302;2023-12-20T03:56:54;5.90;99.90
17728;DHT22;8984;49.268;12.302;2023-12-20T03:59:28;5.90;99.90
17728;DHT22;8984;49.268;12.302;2023-12-20T04:02:03;6.00;99.90
17728;DHT22;8984;49.268;12.302;2023-12-20T04:04:32;6.00;99.90
17728;DHT22;8984;49.268;12.302;2023-12-20T04:07:07;6.10;99.90
17728;DHT22;8984;49.268;12.302;2023-12-20T04:09:36;6.00;99.90
17728;DHT22;8984;49.268;12.302;2023-12-20T04:12:08;6.00;99.90
17728;DHT22;8984;49.268;12.302;2023-12-20T04:14:36;5.90;99.90
17728;DHT22;8984;49.268;12.302;2023-12-20T04:17:13;6.00;99.90
17728;DHT22;8984;49.268;12.302;2023-12-20T04:19:44;6.00;99.90
17728;DHT22;8984;49.268;12.302;2023-12-20T04:22:21;6.00;99.90
17728;DHT22;8984;49.268;12.302;2023-12-20T04:24:50;6.00;99.90
17728;DHT22;8984;49.268;12.302;2023-12-20T04:27:28;6.00;99.90
17728;DHT22;8984;49.268;12.302;2023-12-20T04:30:07;6.10;99.90
17728;DHT22;8984;49.268;12.302;2023-12-20T04:32:37;6.10;99.90
17728;DHT22;8984;49.268;12.302;2023-12-20T04:35:10;6.00;99.90
17728;DHT22;8984;49.268;12.302;2023-12-20T04:37:48;6.00;99.90
17728;DHT22;8984;49.268;12.302;2023-12-20T04:40:16;6.00;99.90
17728;DHT22;8984;49.268;12.302;2023-12-20T04:42:48;5.90;99.90
17728;DHT22;8984;49.268;12.302;2023-12-20T04:45:17;5.90;99.90
17728;DHT22;8984;49.268;12.302;2023-12-20T04:47:50;5.80;99.90
17728;DHT22;8984;49.268;12.302;2023-12-20T04:50:26;5.90;99.90
17728;DHT22;8984;49.268;12.302;2023-12-20T04:52:59;6.00;99.90
17728;DHT22;8984;49.268;12.302;2023-12-20T04:55:29;6.00;99.90
17728;DHT22;8984;49.268;12.302;2023-12-20T04:57:58;6.00;99.90
17728;DHT22;8984;49.268;12.302;2023-12-20T05:00:28;6.00;99.90
17728;DHT22;8984;49.268;12.302;2023-12-20T05:03:07;6.10;99.90
17728;DHT22;8984;49.268;12.302;2023-12-20T05:05:43;6.20;99.90
17728;DHT22;8984;49.268;12.302;2023-12-20T05:08:40;6.10;99.90
17728;DHT22;8984;49.268;12.302;2023-12-20T05:11:31;6.20;99.90
17728;DHT22;8984;49.268;12.302;2023-12-20T05:14:16;6.10;99.90
17728;DHT22;8984;49.268;12.302;2023-12-20T05:20:01;6.20;99.90
17728;DHT22;8984;49.268;12.302;2023-12-20T05:22:45;6.10;99.90
17728;DHT22;8984;49.268;12.302;2023-12-20T05:25:13;6.10;99.90
17728;DHT22;8984;49.268;12.302;2023-12-20T05:27:44;6.10;99.90
17728;DHT22;8984;49.268;12.302;2023-12-20T05:30:13;6.20;99.90
17728;DHT22;8984;49.268;12.302;2023-12-20T05:32:42;6.10;99.90
17728;DHT22;8984;49.268;12.302;2023-12-20T05:35:16;6.20;99.90
17728;DHT22;8984;49.268;12.302;2023-12-20T05:37:58;6.20;99.90
17728;DHT22;8984;49.268;12.302;2023-12-20T05:40:26;6.20;99.90
17728;DHT22;8984;49.268;12.302;2023-12-20T05:43:00;6.30;99.90
17728;DHT22;8984;49.268;12.302;2023-12-20T05:45:28;6.20;99.90
17728;DHT22;8984;49.268;12.302;2023-12-20T05:47:55;6.10;99.90
17728;DHT22;8984;49.268;12.302;2023-12-20T05:50:28;6.20;99.90
17728;DHT22;8984;49.268;12.302;2023-12-20T05:52:56;6.20;99.90
17728;DHT22;8984;49.268;12.302;2023-12-20T05:55:26;6.20;99.90
17728;DHT22;8984;49.268;12.302;2023-12-20T05:57:53;6.10;99.90
17728;DHT22;8984;49.268;12.302;2023-12-20T06:00:25;6.30;99.90
17728;DHT22;8984;49.268;12.302;2023-12-20T06:02:55;6.20;99.90
17728;DHT22;8984;49.268;12.302;2023-12-20T06:05:23;6.20;99.90
17728;DHT22;8984;49.268;12.302;2023-12-20T06:08:10;6.20;99.90
17728;DHT22;8984;49.268;12.302;2023-12-20T06:10:40;6.20;99.90
17728;DHT22;8984;49.268;12.302;2023-12-20T06:13:09;6.30;99.90
17728;DHT22;8984;49.268;12.302;2023-12-20T06:15:39;6.20;99.90
17728;DHT22;8984;49.268;12.302;2023-12-20T06:18:07;6.20;99.90
17728;DHT22;8984;49.268;12.302;2023-12-20T06:20:45;6.30;99.90
17728;DHT22;8984;49.268;12.302;2023-12-20T06:23:34;6.10;99.90
17728;DHT22;8984;49.268;12.302;2023-12-20T06:26:05;6.10;99.90
17728;DHT22;8984;49.268;12.302;2023-12-20T06:28:34;6.10;99.90
17728;DHT22;8984;49.268;12.302;2023-12-20T06:31:02;6.20;99.90
17728;DHT22;8984;49.268;12.302;2023-12-20T06:33:31;6.10;99.90
17728;DHT22;8984;49.268;12.302;2023-12-20T06:35:59;6.20;99.90
17728;DHT22;8984;49.268;12.302;2023-12-20T06:41:26;6.20;99.90
17728;DHT22;8984;49.268;12.302;2023-12-20T06:43:53;6.20;99.90
17728;DHT22;8984;49.268;12.302;2023-12-20T06:46:19;6.20;99.90
17728;DHT22;8984;49.268;12.302;2023-12-20T06:48:46;6.20;99.90
17728;DHT22;8984;49.268;12.302;2023-12-20T06:51:14;6.20;99.90
17728;DHT22;8984;49.268;12.302;2023-12-20T06:53:42;6.20;99.90
17728;DHT22;8984;49.268;12.302;2023-12-20T06:56:10;6.20;99.90
17728;DHT22;8984;49.268;12.302;2023-12-20T06:58:39;6.20;99.90
17728;DHT22;8984;49.268;12.302;2023-12-20T07:01:11;6.20;99.90
17728;DHT22;8984;49.268;12.302;2023-12-20T07:03:37;6.20;99.90
17728;DHT22;8984;49.268;12.302;2023-12-20T07:06:04;6.20;99.90
17728;DHT22;8984;49.268;12.302;2023-12-20T07:08:31;6.10;99.90
17728;DHT22;8984;49.268;12.302;2023-12-20T07:10:58;6.10;99.90
17728;DHT22;8984;49.268;12.302;2023-12-20T07:13:25;6.20;99.90
17728;DHT22;8984;49.268;12.302;2023-12-20T07:15:53;6.20;99.90
17728;DHT22;8984;49.268;12.302;2023-12-20T07:18:20;6.30;99.90
17728;DHT22;8984;49.268;12.302;2023-12-20T07:20:47;6.30;99.90
17728;DHT22;8984;49.268;12.302;2023-12-20T07:23:13;6.30;99.90
17728;DHT22;8984;49.268;12.302;2023-12-20T07:25:40;6.30;99.90
17728;DHT22;8984;49.268;12.302;2023-12-20T07:28:07;6.30;99.90
17728;DHT22;8984;49.268;12.302;2023-12-20T07:30:34;6.30;99.90
17728;DHT22;8984;49.268;12.302;2023-12-20T07:33:02;6.30;99.90
17728;DHT22;8984;49.268;12.302;2023-12-20T07:35:29;6.30;99.90
17728;DHT22;8984;49.268;12.302;2023-12-20T07:37:59;6.30;99.90
17728;DHT22;8984;49.268;12.302;2023-12-20T07:40:26;6.30;99.90
17728;DHT22;8984;49.268;12.302;2023-12-20T07:42:52;6.30;99.90
17728;DHT22;8984;49.268;12.302;2023-12-20T07:45:23;6.40;99.90
17728;DHT22;8984;49.268;12.302;2023-12-20T07:47:50;6.40;99.90
17728;DHT22;8984;49.268;12.302;2023-12-20T07:50:20;6.30;99.90
17728;DHT22;8984;49.268;12.302;2023-12-20T07:52:49;6.30;99.90
17728;DHT22;8984;49.268;12.302;2023-12-20T07:55:19;6.20;99.90
17728;DHT22;8984;49.268;12.302;2023-12-20T07:57:46;6.20;99.90
17728;DHT22;8984;49.268;12.302;2023-12-20T08:00:16;6.20;99.90
17728;DHT22;8984;49.268;12.302;2023-12-20T08:02:44;6.20;99.90
17728;DHT22;8984;49.268;12.302;2023-12-20T08:05:19;6.30;99.90
17728;DHT22;8984;49.268;12.302;2023-12-20T08:07:49;6.20;99.90
17728;DHT22;8984;49.268;12.302;2023-12-20T08:10:18;6.30;99.90
17728;DHT22;8984;49.268;12.302;2023-12-20T08:12:47;6.20;99.90
17728;DHT22;8984;49.268;12.302;2023-12-20T08:15:18;6.10;99.90
17728;DHT22;8984;49.268;12.302;2023-12-20T08:17:46;6.10;99.90
17728;DHT22;8984;49.268;12.302;2023-12-20T08:20:14;6.10;99.90
17728;DHT22;8984;49.268;12.302;2023-12-20T08:22:45;6.10;99.90
17728;DHT22;8984;49.268;12.302;2023-12-20T08:25:16;6.20;99.90
17728;DHT22;8984;49.268;12.302;2023-12-20T08:27:45;6.10;99.90
17728;DHT22;8984;49.268;12.302;2023-12-20T08:30:22;6.30;99.90
17728;DHT22;8984;49.268;12.302;2023-12-20T08:33:01;6.30;99.90
17728;DHT22;8984;49.268;12.302;2023-12-20T08:35:28;6.20;99.90
17728;DHT22;8984;49.268;12.302;2023-12-20T08:38:07;6.40;99.90
17728;DHT22;8984;49.268;12.302;2023-12-20T08:40:37;6.30;99.90
17728;DHT22;8984;49.268;12.302;2023-12-20T08:43:08;6.50;99.90
17728;DHT22;8984;49.268;12.302;2023-12-20T08:45:45;6.30;99.90
17728;DHT22;8984;49.268;12.302;2023-12-20T08:48:17;6.30;99.90
17728;DHT22;8984;49.268;12.302;2023-12-20T08:51:02;6.30;99.90
17728;DHT22;8984;49.268;12.302;2023-12-20T08:53:40;6.30;99.90
17728;DHT22;8984;49.268;12.302;2023-12-20T08:56:16;6.30;99.90
17728;DHT22;8984;49.268;12.302;2023-12-20T08:58:44;6.40;99.90
17728;DHT22;8984;49.268;12.302;2023-12-20T09:01:14;6.40;99.90
17728;DHT22;8984;49.268;12.302;2023-12-20T09:03:46;6.40;99.90
17728;DHT22;8984;49.268;12.302;2023-12-20T09:06:20;6.20;99.90
17728;DHT22;8984;49.268;12.302;2023-12-20T09:09:08;6.30;99.90
17728;DHT22;8984;49.268;12.302;2023-12-20T09:11:50;6.40;99.90
17728;DHT22;8984;49.268;12.302;2023-12-20T09:14:35;6.40;99.90
17728;DHT22;8984;49.268;12.302;2023-12-20T09:17:07;6.50;99.90
17728;DHT22;8984;49.268;12.302;2023-12-20T09:19:37;6.60;99.90
17728;DHT22;8984;49.268;12.302;2023-12-20T09:22:18;6.70;99.90
17728;DHT22;8984;49.268;12.302;2023-12-20T09:25:01;6.70;99.90
17728;DHT22;8984;49.268;12.302;2023-12-20T09:27:30;6.70;99.90
17728;DHT22;8984;49.268;12.302;2023-12-20T09:29:57;6.70;99.90
17728;DHT22;8984;49.268;12.302;2023-12-20T09:32:24;6.70;99.90
17728;DHT22;8984;49.268;12.302;2023-12-20T09:35:02;6.70;99.90
17728;DHT22;8984;49.268;12.302;2023-12-20T09:37:34;6.70;99.90
17728;DHT22;8984;49.268;12.302;2023-12-20T09:40:07;6.80;99.90
17728;DHT22;8984;49.268;12.302;2023-12-20T09:42:43;6.70;99.90
17728;DHT22;8984;49.268;12.302;2023-12-20T09:45:15;6.60;99.90
17728;DHT22;8984;49.268;12.302;2023-12-20T09:47:43;6.70;99.90
17728;DHT22;8984;49.268;12.302;2023-12-20T09:50:15;6.70;99.90
17728;DHT22;8984;49.268;12.302;2023-12-20T09:55:45;6.90;99.90
17728;DHT22;8984;49.268;12.302;2023-12-20T09:58:13;6.90;99.90
17728;DHT22;8984;49.268;12.302;2023-12-20T10:00:41;6.90;99.90
17728;DHT22;8984;49.268;12.302;2023-12-20T10:03:09;6.90;99.90
17728;DHT22;8984;49.268;12.302;2023-12-20T10:05:39;6.60;99.90
17728;DHT22;8984;49.268;12.302;2023-12-20T10:08:24;6.70;99.90
17728;DHT22;8984;49.268;12.302;2023-12-20T10:10:58;6.80;99.90
17728;DHT22;8984;49.268;12.302;2023-12-20T10:13:28;6.80;99.90
17728;DHT22;8984;49.268;12.302;2023-12-20T10:15:56;6.90;99.90
17728;DHT22;8984;49.268;12.302;2023-12-20T10:18:24;7.00;99.90
17728;DHT22;8984;49.268;12.302;2023-12-20T10:20:53;7.10;99.90
17728;DHT22;8984;49.268;12.302;2023-12-20T10:23:20;7.10;99.90
17728;DHT22;8984;49.268;12.302;2023-12-20T10:26:03;7.10;99.90
17728;DHT22;8984;49.268;12.302;2023-12-20T10:28:34;7.20;99.90
17728;DHT22;8984;49.268;12.302;2023-12-20T10:31:06;7.30;99.90
17728;DHT22;8984;49.268;12.302;2023-12-20T10:33:53;7.20;99.90
17728;DHT22;8984;49.268;12.302;2023-12-20T10:36:23;7.10;99.90
17728;DHT22;8984;49.268;12.302;2023-12-20T10:38:53;7.20;99.90
17728;DHT22;8984;49.268;12.302;2023-12-20T10:41:32;7.20;99.90
17728;DHT22;8984;49.268;12.302;2023-12-20T10:44:05;7.30;99.90
17728;DHT22;8984;49.268;12.302;2023-12-20T10:46:44;7.60;99.90
17728;DHT22;8984;49.268;12.302;2023-12-20T10:49:17;7.80;99.90
17728;DHT22;8984;49.268;12.302;2023-12-20T10:51:48;7.70;99.90
17728;DHT22;8984;49.268;12.302;2023-12-20T10:54:18;7.70;99.90
17728;DHT22;8984;49.268;12.302;2023-12-20T10:56:55;7.70;99.90
17728;DHT22;8984;49.268;12.302;2023-12-20T10:59:40;7.70;99.90
17728;DHT22;8984;49.268;12.302;2023-12-20T11:02:17;7.50;99.90
17728;DHT22;8984;49.268;12.302;2023-12-20T11:04:53;7.90;99.90
17728;DHT22;8984;49.268;12.302;2023-12-20T11:07:29;7.90;99.90
17728;DHT22;8984;49.268;12.302;2023-12-20T11:10:18;8.10;99.90
17728;DHT22;8984;49.268;12.302;2023-12-20T11:13:19;8.20;99.90
17728;DHT22;8984;49.268;12.302;2023-12-20T11:16:06;8.20;99.90
17728;DHT22;8984;49.268;12.302;2023-12-20T11:18:44;8.20;99.90
17728;DHT22;8984;49.268;12.302;2023-12-20T11:21:16;8.10;99.90
17728;DHT22;8984;49.268;12.302;2023-12-20T11:23:58;8.00;99.90
17728;DHT22;8984;49.268;12.302;2023-12-20T11:26:35;7.90;99.90
17728;DHT22;8984;49.268;12.302;2023-12-20T11:29:39;7.90;99.90
17728;DHT22;8984;49.268;12.302;2023-12-20T11:32:28;7.90;99.90
17728;DHT22;8984;49.268;12.302;2023-12-20T11:35:20;7.90;99.90
17728;DHT22;8984;49.268;12.302;2023-12-20T11:37:55;7.80;99.90
17728;DHT22;8984;49.268;12.302;2023-12-20T11:40:37;7.80;99.90
17728;DHT22;8984;49.268;12.302;2023-12-20T11:43:35;7.80;99.90
17728;DHT22;8984;49.268;12.302;2023-12-20T11:49:37;7.70;99.90
17728;DHT22;8984;49.268;12.302;2023-12-20T11:52:23;7.80;99.90
17728;DHT22;8984;49.268;12.302;2023-12-20T11:54:59;7.80;99.90
17728;DHT22;8984;49.268;12.302;2023-12-20T11:57:29;7.90;99.90
17728;DHT22;8984;49.268;12.302;2023-12-20T12:00:00;7.80;99.90
17728;DHT22;8984;49.268;12.302;2023-12-20T12:02:41;7.80;99.90
17728;DHT22;8984;49.268;12.302;2023-12-20T12:05:27;7.80;99.90
17728;DHT22;8984;49.268;12.302;2023-12-20T12:08:08;7.70;99.90
17728;DHT22;8984;49.268;12.302;2023-12-20T12:10:40;7.70;99.90
17728;DHT22;8984;49.268;12.302;2023-12-20T12:13:09;7.70;99.90
17728;DHT22;8984;49.268;12.302;2023-12-20T12:15:49;7.70;99.90
17728;DHT22;8984;49.268;12.302;2023-12-20T12:18:36;7.80;99.90
17728;DHT22;8984;49.268;12.302;2023-12-20T12:21:21;7.90;99.90
17728;DHT22;8984;49.268;12.302;2023-12-20T12:24:07;7.70;99.90
17728;DHT22;8984;49.268;12.302;2023-12-20T12:26:50;7.80;99.90
17728;DHT22;8984;49.268;12.302;2023-12-20T12:29:32;7.70;99.90
17728;DHT22;8984;49.268;12.302;2023-12-20T12:32:06;7.80;99.90
17728;DHT22;8984;49.268;12.302;2023-12-20T12:40:45;7.70;99.90
17728;DHT22;8984;49.268;12.302;2023-12-20T12:43:32;7.60;99.90
17728;DHT22;8984;49.268;12.302;2023-12-20T12:46:03;7.60;99.90
17728;DHT22;8984;49.268;12.302;2023-12-20T12:48:35;7.70;99.90
17728;DHT22;8984;49.268;12.302;2023-12-20T12:51:17;7.80;99.90
17728;DHT22;8984;49.268;12.302;2023-12-20T12:53:56;7.50;99.90
17728;DHT22;8984;49.268;12.302;2023-12-20T12:56:49;7.40;99.90
17728;DHT22;8984;49.268;12.302;2023-12-20T12:59:25;7.40;99.90
17728;DHT22;8984;49.268;12.302;2023-12-20T13:01:53;7.40;99.90
17728;DHT22;8984;49.268;12.302;2023-12-20T13:04:21;7.50;99.90
17728;DHT22;8984;49.268;12.302;2023-12-20T13:06:50;7.50;99.90
17728;DHT22;8984;49.268;12.302;2023-12-20T13:09:18;7.40;99.90
17728;DHT22;8984;49.268;12.302;2023-12-20T13:12:02;7.20;99.90
17728;DHT22;8984;49.268;12.302;2023-12-20T13:14:32;7.30;99.90
17728;DHT22;8984;49.268;12.302;2023-12-20T13:17:16;7.30;99.90
17728;DHT22;8984;49.268;12.302;2023-12-20T13:19:44;7.30;99.90
17728;DHT22;8984;49.268;12.302;2023-12-20T13:22:17;7.30;99.90
17728;DHT22;8984;49.268;12.302;2023-12-20T13:25:00;7.30;99.90
17728;DHT22;8984;49.268;12.302;2023-12-20T13:27:46;7.20;99.90
17728;DHT22;8984;49.268;12.302;2023-12-20T13:30:22;7.30;99.90
17728;DHT22;8984;49.268;12.302;2023-12-20T13:32:55;7.40;99.90
17728;DHT22;8984;49.268;12.302;2023-12-20T13:35:36;7.30;99.90
17728;DHT22;8984;49.268;12.302;2023-12-20T13:38:09;7.30;99.90
17728;DHT22;8984;49.268;12.302;2023-12-20T13:40:41;7.30;99.90
17728;DHT22;8984;49.268;12.302;2023-12-20T13:43:18;7.10;99.90
17728;DHT22;8984;49.268;12.302;2023-12-20T13:45:48;7.00;99.90
17728;DHT22;8984;49.268;12.302;2023-12-20T13:48:19;6.80;99.90
17728;DHT22;8984;49.268;12.302;2023-12-20T13:50:50;6.70;99.90
17728;DHT22;8984;49.268;12.302;2023-12-20T13:53:17;6.80;99.90
17728;DHT22;8984;49.268;12.302;2023-12-20T13:55:46;6.80;99.90
17728;DHT22;8984;49.268;12.302;2023-12-20T13:58:19;6.70;99.90
17728;DHT22;8984;49.268;12.302;2023-12-20T14:00:54;6.70;99.90
17728;DHT22;8984;49.268;12.302;2023-12-20T14:03:24;6.70;99.90
17728;DHT22;8984;49.268;12.302;2023-12-20T14:05:54;6.80;99.90
17728;DHT22;8984;49.268;12.302;2023-12-20T14:08:23;6.80;99.90
17728;DHT22;8984;49.268;12.302;2023-12-20T14:10:54;6.60;99.90
17728;DHT22;8984;49.268;12.302;2023-12-20T14:13:54;6.70;99.90
17728;DHT22;8984;49.268;12.302;2023-12-20T14:16:23;6.60;99.90
17728;DHT22;8984;49.268;12.302;2023-12-20T14:19:05;6.70;99.90
17728;DHT22;8984;49.268;12.302;2023-12-20T14:21:34;6.80;99.90
17728;DHT22;8984;49.268;12.302;2023-12-20T14:24:03;6.70;99.90
17728;DHT22;8984;49.268;12.302;2023-12-20T14:26:38;6.70;99.90
17728;DHT22;8984;49.268;12.302;2023-12-20T14:29:17;6.70;99.90
17728;DHT22;8984;49.268;12.302;2023-12-20T14:31:46;6.90;99.90
17728;DHT22;8984;49.268;12.302;2023-12-20T14:34:15;6.70;99.90
17728;DHT22;8984;49.268;12.302;2023-12-20T14:37:18;6.70;99.90
17728;DHT22;8984;49.268;12.302;2023-12-20T14:39:44;6.70;99.90
17728;DHT22;8984;49.268;12.302;2023-12-20T14:42:11;6.90;99.90
17728;DHT22;8984;49.268;12.302;2023-12-20T14:44:39;6.70;99.90
17728;DHT22;8984;49.268;12.302;2023-12-20T14:47:06;6.90;99.90
17728;DHT22;8984;49.268;12.302;2023-12-20T14:49:33;6.70;99.90
17728;DHT22;8984;49.268;12.302;2023-12-20T14:52:00;6.70;99.90
17728;DHT22;8984;49.268;12.302;2023-12-20T14:54:33;6.90;99.90
17728;DHT22;8984;49.268;12.302;2023-12-20T14:57:02;6.70;99.90
17728;DHT22;8984;49.268;12.302;2023-12-20T14:59:31;6.70;99.90
17728;DHT22;8984;49.268;12.302;2023-12-20T15:02:02;6.80;99.90
17728;DHT22;8984;49.268;12.302;2023-12-20T15:04:32;6.70;99.90
17728;DHT22;8984;49.268;12.302;2023-12-20T15:07:02;6.70;99.90
17728;DHT22;8984;49.268;12.302;2023-12-20T15:09:35;6.70;99.90
17728;DHT22;8984;49.268;12.302;2023-12-20T15:12:12;6.70;99.90
17728;DHT22;8984;49.268;12.302;2023-12-20T15:14:49;6.70;99.90
17728;DHT22;8984;49.268;12.302;2023-12-20T15:17:22;6.70;99.90
17728;DHT22;8984;49.268;12.302;2023-12-20T15:19:53;6.70;99.90
17728;DHT22;8984;49.268;12.302;2023-12-20T15:22:21;6.60;99.90
17728;DHT22;8984;49.268;12.302;2023-12-20T15:24:51;6.50;99.90
17728;DHT22;8984;49.268;12.302;2023-12-20T15:27:32;6.50;99.90
17728;DHT22;8984;49.268;12.302;2023-12-20T15:30:33;6.60;99.90
17728;DHT22;8984;49.268;12.302;2023-12-20T15:33:01;6.60;99.90
17728;DHT22;8984;49.268;12.302;2023-12-20T15:35:30;6.60;99.90
17728;DHT22;8984;49.268;12.302;2023-12-20T15:38:02;6.60;99.90
17728;DHT22;8984;49.268;12.302;2023-12-20T15:40:35;6.70;99.90
17728;DHT22;8984;49.268;12.302;2023-12-20T15:43:03;6.60;99.90
17728;DHT22;8984;49.268;12.302;2023-12-20T15:45:37;6.60;99.90
17728;DHT22;8984;49.268;12.302;2023-12-20T15:48:08;6.60;99.90
17728;DHT22;8984;49.268;12.302;2023-12-20T15:50:44;6.60;99.90
17728;DHT22;8984;49.268;12.302;2023-12-20T15:53:16;6.60;99.90
17728;DHT22;8984;49.268;12.302;2023-12-20T15:55:48;6.60;99.90
17728;DHT22;8984;49.268;12.302;2023-12-20T15:58:24;6.60;99.90
17728;DHT22;8984;49.268;12.302;2023-12-20T16:00:58;6.70;99.90
17728;DHT22;8984;49.268;12.302;2023-12-20T16:03:26;6.70;99.90
17728;DHT22;8984;49.268;12.302;2023-12-20T16:06:08;6.50;99.90
17728;DHT22;8984;49.268;12.302;2023-12-20T16:08:44;6.50;99.90
17728;DHT22;8984;49.268;12.302;2023-12-20T16:11:13;6.40;99.90
17728;DHT22;8984;49.268;12.302;2023-12-20T16:13:45;6.30;99.90
17728;DHT22;8984;49.268;12.302;2023-12-20T16:16:19;6.50;99.90
17728;DHT22;8984;49.268;12.302;2023-12-20T16:18:50;6.50;99.90
17728;DHT22;8984;49.268;12.302;2023-12-20T16:21:18;6.50;99.90
17728;DHT22;8984;49.268;12.302;2023-12-20T16:23:57;6.60;99.90
17728;DHT22;8984;49.268;12.302;2023-12-20T16:26:25;6.60;99.90
17728;DHT22;8984;49.268;12.302;2023-12-20T16:28:55;6.60;99.90
17728;DHT22;8984;49.268;12.302;2023-12-20T16:38:17;6.60;99.90
17728;DHT22;8984;49.268;12.302;2023-12-20T16:41:18;6.60;99.90
17728;DHT22;8984;49.268;12.302;2023-12-20T16:44:01;6.40;99.90